AZP weather

Atizapan De Zaragoza Airport
Mexico, Mexico

Public forecast

Using degrees Celsius for public forecast. Weather courtesy of forecast.io.

METAR (pilot weather report)

Closest report is Licenciado Benito Juarez International Airport, 14.8 nm (27.4 km) SE. Retrieved 2019/02/18 23:48 UTC (23 minutes ago):

MMMX 182348Z 18010KT 12SM SKC 26/M05 A3020 NOSIG RMK SLP040 52001 901

TAF (pilot weather forecast)

Forecast is more than 12 hours old.

Closest forecast is Licenciado Benito Juarez International Airport, 14.8 nm (27.4 km) SE. Retrieved 2019/02/18 00:31 UTC (24 hours ago):

TAF MMMX 182324Z 1900/2006 17015KT P6SM SKC TX29/1921Z TN12/1912Z BECMG 1903/1904 18008KT FM191500 17012KT P6SM SKC BECMG 1920/1921 20020KT FM200300 17012KT P6SM SKC